El Mirage, Arizona
Current Conditions -  °F | °C
As of 3:58 AM on Sunday 23 Nov 2014 (Local Time) from KLUF Reporting Station
Clear Clear  
Wind Chill: 44°   Ceiling: Unl
Heat Index: 46°   Visibility: 10mi
Dew Point: 32°   Wind: 5mph
Humidity: 57%   Direction: 360°N
Pressure: 29.93"   Gusts: NA
Location:  33.62°N, 112.32°W
Report Text: KLUF 231058Z AUTO 36004KT 10SM CLR 08/00 A2993 RMK AO2 SLP131
Loading
Personal Weather Stations






























Interactive Weather Map New forecast layout! Learn more

10-Day Weather Forecast

Advertisements
Track Severe Weather on mobile